sensor_id;sensor_type;location;lat;lon;timestamp;pressure;altitude;pressure_sealevel;temperature;humidity
45941;BME280;31858;46.008;8.978;2023-12-20T00:01:19;94462.66;;;8.10;54.97
45941;BME280;31858;46.008;8.978;2023-12-20T00:11:22;94438.47;;;8.15;53.07
45941;BME280;31858;46.008;8.978;2023-12-20T00:21:23;94433.94;;;8.16;53.62
45941;BME280;31858;46.008;8.978;2023-12-20T00:31:26;94422.59;;;8.19;53.58
45941;BME280;31858;46.008;8.978;2023-12-20T00:41:28;94425.44;;;7.80;55.23
45941;BME280;31858;46.008;8.978;2023-12-20T00:51:31;94412.94;;;7.55;54.89
45941;BME280;31858;46.008;8.978;2023-12-20T01:01:32;94393.72;;;7.38;56.29
45941;BME280;31858;46.008;8.978;2023-12-20T01:11:35;94346.06;;;7.95;55.03
45941;BME280;31858;46.008;8.978;2023-12-20T01:21:37;94340.75;;;7.95;54.90
45941;BME280;31858;46.008;8.978;2023-12-20T01:31:40;94329.63;;;8.12;55.92
45941;BME280;31858;46.008;8.978;2023-12-20T01:41:41;94321.47;;;8.28;55.61
45941;BME280;31858;46.008;8.978;2023-12-20T01:51:45;94321.13;;;7.99;54.32
45941;BME280;31858;46.008;8.978;2023-12-20T02:01:46;94305.38;;;8.13;54.27
45941;BME280;31858;46.008;8.978;2023-12-20T02:11:50;94284.81;;;8.07;52.58
45941;BME280;31858;46.008;8.978;2023-12-20T02:22:06;94278.94;;;7.91;54.84
45941;BME280;31858;46.008;8.978;2023-12-20T02:32:08;94275.16;;;8.22;52.47
45941;BME280;31858;46.008;8.978;2023-12-20T02:42:11;94235.44;;;7.99;52.57
45941;BME280;31858;46.008;8.978;2023-12-20T02:52:12;94233.31;;;8.11;54.62
45941;BME280;31858;46.008;8.978;2023-12-20T03:02:15;94228.06;;;8.15;51.43
45941;BME280;31858;46.008;8.978;2023-12-20T03:12:17;94213.91;;;8.37;52.70
45941;BME280;31858;46.008;8.978;2023-12-20T03:22:20;94206.34;;;8.39;52.04
45941;BME280;31858;46.008;8.978;2023-12-20T03:32:21;94179.00;;;8.35;52.46
45941;BME280;31858;46.008;8.978;2023-12-20T03:42:24;94179.41;;;8.04;53.32
45941;BME280;31858;46.008;8.978;2023-12-20T03:52:26;94174.31;;;8.25;53.05
45941;BME280;31858;46.008;8.978;2023-12-20T04:02:29;94169.69;;;8.15;52.77
45941;BME280;31858;46.008;8.978;2023-12-20T04:12:30;94147.81;;;7.92;54.70
45941;BME280;31858;46.008;8.978;2023-12-20T04:22:33;94145.34;;;8.09;53.42
45941;BME280;31858;46.008;8.978;2023-12-20T04:32:35;94144.28;;;7.80;54.64
45941;BME280;31858;46.008;8.978;2023-12-20T04:42:38;94148.03;;;8.13;53.69
45941;BME280;31858;46.008;8.978;2023-12-20T04:52:39;94142.19;;;7.97;55.22
45941;BME280;31858;46.008;8.978;2023-12-20T05:02:42;94130.56;;;8.08;54.88
45941;BME280;31858;46.008;8.978;2023-12-20T05:12:44;94110.50;;;8.11;53.80
45941;BME280;31858;46.008;8.978;2023-12-20T05:22:47;94110.25;;;7.86;56.26
45941;BME280;31858;46.008;8.978;2023-12-20T05:32:49;94102.56;;;7.74;56.25
45941;BME280;31858;46.008;8.978;2023-12-20T05:42:53;94114.78;;;7.85;55.11
45941;BME280;31858;46.008;8.978;2023-12-20T05:52:55;94156.28;;;7.67;57.31
45941;BME280;31858;46.008;8.978;2023-12-20T06:02:58;94161.59;;;7.67;56.21
45941;BME280;31858;46.008;8.978;2023-12-20T06:12:59;94152.16;;;7.40;58.10
45941;BME280;31858;46.008;8.978;2023-12-20T06:23:03;94144.38;;;7.88;54.89
45941;BME280;31858;46.008;8.978;2023-12-20T06:33:05;94133.59;;;8.07;54.88
45941;BME280;31858;46.008;8.978;2023-12-20T06:43:08;94143.47;;;7.73;58.84
45941;BME280;31858;46.008;8.978;2023-12-20T06:53:09;94145.81;;;7.78;57.00
45941;BME280;31858;46.008;8.978;2023-12-20T07:03:12;94140.94;;;7.50;57.18
45941;BME280;31858;46.008;8.978;2023-12-20T07:13:14;94125.00;;;7.80;57.06
45941;BME280;31858;46.008;8.978;2023-12-20T07:23:17;94120.50;;;7.88;57.46
45941;BME280;31858;46.008;8.978;2023-12-20T07:33:20;94129.91;;;7.81;58.57
45941;BME280;31858;46.008;8.978;2023-12-20T07:43:23;94148.09;;;7.79;59.11
45941;BME280;31858;46.008;8.978;2023-12-20T07:53:24;94151.44;;;7.73;58.62
45941;BME280;31858;46.008;8.978;2023-12-20T08:03:27;94141.59;;;7.73;58.78
45941;BME280;31858;46.008;8.978;2023-12-20T08:13:29;94112.63;;;7.95;61.15
45941;BME280;31858;46.008;8.978;2023-12-20T08:23:32;94114.75;;;7.78;59.08
45941;BME280;31858;46.008;8.978;2023-12-20T08:33:33;94108.38;;;7.86;58.05
45941;BME280;31858;46.008;8.978;2023-12-20T08:43:36;94104.25;;;7.93;61.51
45941;BME280;31858;46.008;8.978;2023-12-20T08:53:40;94112.50;;;7.84;61.62
45941;BME280;31858;46.008;8.978;2023-12-20T09:03:43;94103.59;;;7.62;68.38
45941;BME280;31858;46.008;8.978;2023-12-20T09:13:44;94106.25;;;8.03;62.58
45941;BME280;31858;46.008;8.978;2023-12-20T09:23:47;94110.09;;;8.09;60.32
45941;BME280;31858;46.008;8.978;2023-12-20T09:33:49;94103.75;;;8.21;58.53
45941;BME280;31858;46.008;8.978;2023-12-20T09:43:54;94110.28;;;8.30;59.94
45941;BME280;31858;46.008;8.978;2023-12-20T09:53:58;94107.16;;;8.62;56.96
45941;BME280;31858;46.008;8.978;2023-12-20T10:04:05;94091.53;;;8.49;58.30
45941;BME280;31858;46.008;8.978;2023-12-20T10:14:10;94092.06;;;8.73;56.51
45941;BME280;31858;46.008;8.978;2023-12-20T10:24:17;94085.25;;;9.55;51.71
45941;BME280;31858;46.008;8.978;2023-12-20T10:34:19;94071.72;;;10.17;51.01
45941;BME280;31858;46.008;8.978;2023-12-20T10:44:22;94052.69;;;10.68;51.42
45941;BME280;31858;46.008;8.978;2023-12-20T10:54:24;94049.06;;;11.39;44.40
45941;BME280;31858;46.008;8.978;2023-12-20T11:04:36;94028.13;;;12.03;42.90
45941;BME280;31858;46.008;8.978;2023-12-20T11:14:44;94018.22;;;12.04;43.10
45941;BME280;31858;46.008;8.978;2023-12-20T11:24:48;94006.47;;;12.43;39.91
45941;BME280;31858;46.008;8.978;2023-12-20T11:34:51;94023.44;;;12.66;41.26
45941;BME280;31858;46.008;8.978;2023-12-20T11:44:56;94017.25;;;12.73;39.93
45941;BME280;31858;46.008;8.978;2023-12-20T11:54:57;94002.41;;;13.02;38.98
45941;BME280;31858;46.008;8.978;2023-12-20T12:05:00;93987.06;;;13.10;38.82
45941;BME280;31858;46.008;8.978;2023-12-20T12:15:02;93996.31;;;13.36;36.63
45941;BME280;31858;46.008;8.978;2023-12-20T12:25:12;93986.09;;;13.58;35.22
45941;BME280;31858;46.008;8.978;2023-12-20T12:35:14;93965.00;;;13.63;35.67
45941;BME280;31858;46.008;8.978;2023-12-20T12:45:17;93952.81;;;13.86;33.32
45941;BME280;31858;46.008;8.978;2023-12-20T12:55:19;93941.53;;;13.98;32.97
45941;BME280;31858;46.008;8.978;2023-12-20T13:05:22;93945.16;;;14.11;30.41
45941;BME280;31858;46.008;8.978;2023-12-20T13:15:23;93938.88;;;14.21;30.94
45941;BME280;31858;46.008;8.978;2023-12-20T13:25:26;93945.84;;;14.38;27.48
45941;BME280;31858;46.008;8.978;2023-12-20T13:35:28;93939.31;;;14.40;29.58
45941;BME280;31858;46.008;8.978;2023-12-20T13:45:31;93945.28;;;14.27;28.40
45941;BME280;31858;46.008;8.978;2023-12-20T13:55:33;93951.66;;;14.33;29.11
45941;BME280;31858;46.008;8.978;2023-12-20T14:05:36;93952.06;;;14.32;28.20
45941;BME280;31858;46.008;8.978;2023-12-20T14:15:37;93963.34;;;14.23;28.14
45941;BME280;31858;46.008;8.978;2023-12-20T14:25:40;93967.25;;;14.19;27.97
45941;BME280;31858;46.008;8.978;2023-12-20T14:35:42;93965.03;;;14.14;27.41
45941;BME280;31858;46.008;8.978;2023-12-20T14:45:46;93976.31;;;14.01;25.73
45941;BME280;31858;46.008;8.978;2023-12-20T14:55:47;93996.31;;;13.93;26.52
45941;BME280;31858;46.008;8.978;2023-12-20T15:05:52;94016.84;;;13.77;26.33
45941;BME280;31858;46.008;8.978;2023-12-20T15:15:57;94001.88;;;13.52;26.37
45941;BME280;31858;46.008;8.978;2023-12-20T15:26:00;94024.78;;;13.23;27.24
45941;BME280;31858;46.008;8.978;2023-12-20T15:36:01;94042.53;;;13.02;26.86
45941;BME280;31858;46.008;8.978;2023-12-20T15:46:04;94054.31;;;12.71;26.87
45941;BME280;31858;46.008;8.978;2023-12-20T15:56:06;94050.78;;;12.36;27.57
45941;BME280;31858;46.008;8.978;2023-12-20T16:06:10;94043.38;;;12.06;28.41
45941;BME280;31858;46.008;8.978;2023-12-20T16:16:12;94071.38;;;11.81;28.42
45941;BME280;31858;46.008;8.978;2023-12-20T16:26:15;94087.06;;;11.64;29.63
45941;BME280;31858;46.008;8.978;2023-12-20T16:36:17;94095.53;;;11.45;29.55
45941;BME280;31858;46.008;8.978;2023-12-20T16:46:20;94097.09;;;11.32;30.33
45941;BME280;31858;46.008;8.978;2023-12-20T16:56:21;94101.72;;;11.21;30.85
45941;BME280;31858;46.008;8.978;2023-12-20T17:06:24;94107.44;;;11.08;31.14
45941;BME280;31858;46.008;8.978;2023-12-20T17:16:26;94104.78;;;11.08;30.72
45941;BME280;31858;46.008;8.978;2023-12-20T17:26:29;94119.66;;;10.95;31.05
45941;BME280;31858;46.008;8.978;2023-12-20T17:36:31;94112.44;;;10.85;31.93
45941;BME280;31858;46.008;8.978;2023-12-20T17:46:34;94128.41;;;10.85;32.15
45941;BME280;31858;46.008;8.978;2023-12-20T17:56:35;94156.59;;;10.79;32.65
45941;BME280;31858;46.008;8.978;2023-12-20T18:06:38;94173.72;;;10.82;32.65
45941;BME280;31858;46.008;8.978;2023-12-20T18:16:40;94188.97;;;10.81;32.52
45941;BME280;31858;46.008;8.978;2023-12-20T18:26:43;94219.03;;;10.71;32.92
45941;BME280;31858;46.008;8.978;2023-12-20T18:36:45;94208.75;;;10.66;32.95
45941;BME280;31858;46.008;8.978;2023-12-20T18:46:49;94221.28;;;10.58;33.39
45941;BME280;31858;46.008;8.978;2023-12-20T18:56:51;94206.44;;;10.57;32.72
45941;BME280;31858;46.008;8.978;2023-12-20T19:06:54;94209.84;;;10.43;34.02
45941;BME280;31858;46.008;8.978;2023-12-20T19:16:58;94194.25;;;10.49;34.24
45941;BME280;31858;46.008;8.978;2023-12-20T19:27:03;94229.59;;;10.25;34.30
45941;BME280;31858;46.008;8.978;2023-12-20T19:37:04;94240.25;;;10.21;34.85
45941;BME280;31858;46.008;8.978;2023-12-20T19:47:07;94248.22;;;10.21;34.50
45941;BME280;31858;46.008;8.978;2023-12-20T19:57:09;94264.09;;;10.07;34.50
45941;BME280;31858;46.008;8.978;2023-12-20T20:07:12;94272.84;;;10.07;34.76
45941;BME280;31858;46.008;8.978;2023-12-20T20:17:15;94267.97;;;10.17;33.65
45941;BME280;31858;46.008;8.978;2023-12-20T20:27:17;94275.25;;;10.23;33.85
45941;BME280;31858;46.008;8.978;2023-12-20T20:37:22;94286.94;;;10.08;34.90
45941;BME280;31858;46.008;8.978;2023-12-20T20:47:24;94276.13;;;9.76;36.62
45941;BME280;31858;46.008;8.978;2023-12-20T20:57:26;94275.13;;;10.02;34.83
45941;BME280;31858;46.008;8.978;2023-12-20T21:07:31;94275.09;;;9.95;36.74
45941;BME280;31858;46.008;8.978;2023-12-20T21:17:33;94264.97;;;9.56;36.21
45941;BME280;31858;46.008;8.978;2023-12-20T21:27:36;94247.84;;;9.50;36.14
45941;BME280;31858;46.008;8.978;2023-12-20T21:37:39;94262.75;;;9.65;34.97
45941;BME280;31858;46.008;8.978;2023-12-20T21:47:45;94237.69;;;9.70;34.67
45941;BME280;31858;46.008;8.978;2023-12-20T21:57:46;94249.47;;;9.69;35.27
45941;BME280;31858;46.008;8.978;2023-12-20T22:07:49;94232.72;;;9.65;35.16
45941;BME280;31858;46.008;8.978;2023-12-20T22:17:51;94224.03;;;9.71;34.91
45941;BME280;31858;46.008;8.978;2023-12-20T22:27:54;94232.34;;;9.63;35.82
45941;BME280;31858;46.008;8.978;2023-12-20T22:37:56;94248.00;;;9.78;34.77
45941;BME280;31858;46.008;8.978;2023-12-20T22:48:00;94241.91;;;9.78;35.17
45941;BME280;31858;46.008;8.978;2023-12-20T22:58:02;94246.03;;;9.68;34.99
45941;BME280;31858;46.008;8.978;2023-12-20T23:08:06;94239.25;;;9.74;35.38
45941;BME280;31858;46.008;8.978;2023-12-20T23:18:10;94208.38;;;9.59;36.04
45941;BME280;31858;46.008;8.978;2023-12-20T23:28:13;94195.81;;;9.56;36.39
45941;BME280;31858;46.008;8.978;2023-12-20T23:38:14;94207.22;;;9.57;35.92
45941;BME280;31858;46.008;8.978;2023-12-20T23:48:17;94195.50;;;9.68;36.19
45941;BME280;31858;46.008;8.978;2023-12-20T23:58:19;94191.25;;;9.53;36.85
